sensor_id;sensor_type;location;lat;lon;timestamp;P1;durP1;ratioP1;P2;durP2;ratioP2
72209;SDS011;60113;48.762;12.302;2023-09-08T00:01:11;22.20;;;13.57;;
72209;SDS011;60113;48.762;12.302;2023-09-08T00:03:36;17.15;;;13.60;;
72209;SDS011;60113;48.762;12.302;2023-09-08T00:06:14;18.85;;;12.95;;
72209;SDS011;60113;48.762;12.302;2023-09-08T00:08:42;21.52;;;13.05;;
72209;SDS011;60113;48.762;12.302;2023-09-08T00:11:10;21.50;;;12.02;;
72209;SDS011;60113;48.762;12.302;2023-09-08T00:13:36;15.30;;;11.90;;
72209;SDS011;60113;48.762;12.302;2023-09-08T00:16:04;16.40;;;11.77;;
72209;SDS011;60113;48.762;12.302;2023-09-08T00:18:32;14.73;;;10.73;;
72209;SDS011;60113;48.762;12.302;2023-09-08T00:21:16;16.63;;;11.43;;
72209;SDS011;60113;48.762;12.302;2023-09-08T00:23:44;13.07;;;10.77;;
72209;SDS011;60113;48.762;12.302;2023-09-08T00:26:10;16.95;;;12.98;;
72209;SDS011;60113;48.762;12.302;2023-09-08T00:28:40;24.13;;;15.02;;
72209;SDS011;60113;48.762;12.302;2023-09-08T00:31:06;25.50;;;15.20;;
72209;SDS011;60113;48.762;12.302;2023-09-08T00:33:37;24.30;;;15.35;;
72209;SDS011;60113;48.762;12.302;2023-09-08T00:36:08;19.52;;;13.55;;
72209;SDS011;60113;48.762;12.302;2023-09-08T00:38:39;14.88;;;11.40;;
72209;SDS011;60113;48.762;12.302;2023-09-08T00:41:12;14.37;;;11.33;;
72209;SDS011;60113;48.762;12.302;2023-09-08T00:43:43;17.33;;;11.85;;
72209;SDS011;60113;48.762;12.302;2023-09-08T00:46:17;25.73;;;14.35;;
72209;SDS011;60113;48.762;12.302;2023-09-08T00:48:43;21.23;;;14.73;;
72209;SDS011;60113;48.762;12.302;2023-09-08T00:51:08;18.33;;;13.13;;
72209;SDS011;60113;48.762;12.302;2023-09-08T00:53:37;20.02;;;14.00;;
72209;SDS011;60113;48.762;12.302;2023-09-08T00:56:11;15.23;;;12.18;;
72209;SDS011;60113;48.762;12.302;2023-09-08T00:58:46;16.55;;;11.73;;
72209;SDS011;60113;48.762;12.302;2023-09-08T01:01:14;19.92;;;14.57;;
72209;SDS011;60113;48.762;12.302;2023-09-08T01:03:52;21.40;;;14.00;;
72209;SDS011;60113;48.762;12.302;2023-09-08T01:06:20;22.70;;;14.55;;
72209;SDS011;60113;48.762;12.302;2023-09-08T01:08:49;20.20;;;15.30;;
72209;SDS011;60113;48.762;12.302;2023-09-08T01:11:19;28.20;;;16.60;;
72209;SDS011;60113;48.762;12.302;2023-09-08T01:13:47;23.13;;;17.75;;
72209;SDS011;60113;48.762;12.302;2023-09-08T01:16:18;21.67;;;15.52;;
72209;SDS011;60113;48.762;12.302;2023-09-08T01:18:44;23.55;;;14.73;;
72209;SDS011;60113;48.762;12.302;2023-09-08T01:26:44;20.25;;;14.07;;
72209;SDS011;60113;48.762;12.302;2023-09-08T01:29:13;24.83;;;16.02;;
72209;SDS011;60113;48.762;12.302;2023-09-08T01:31:41;21.90;;;15.75;;
72209;SDS011;60113;48.762;12.302;2023-09-08T01:34:06;25.92;;;17.17;;
72209;SDS011;60113;48.762;12.302;2023-09-08T01:36:42;30.05;;;18.85;;
72209;SDS011;60113;48.762;12.302;2023-09-08T01:39:11;27.83;;;18.02;;
72209;SDS011;60113;48.762;12.302;2023-09-08T01:41:37;30.52;;;18.25;;
72209;SDS011;60113;48.762;12.302;2023-09-08T01:44:14;33.30;;;18.85;;
72209;SDS011;60113;48.762;12.302;2023-09-08T01:46:42;33.67;;;21.90;;
72209;SDS011;60113;48.762;12.302;2023-09-08T01:49:07;38.55;;;25.08;;
72209;SDS011;60113;48.762;12.302;2023-09-08T01:51:45;41.53;;;26.77;;
72209;SDS011;60113;48.762;12.302;2023-09-08T01:54:22;36.97;;;22.52;;
72209;SDS011;60113;48.762;12.302;2023-09-08T01:56:48;25.92;;;18.30;;
72209;SDS011;60113;48.762;12.302;2023-09-08T01:59:22;29.20;;;17.73;;
72209;SDS011;60113;48.762;12.302;2023-09-08T02:01:47;28.55;;;18.90;;
72209;SDS011;60113;48.762;12.302;2023-09-08T02:04:13;35.85;;;17.20;;
72209;SDS011;60113;48.762;12.302;2023-09-08T02:06:44;30.05;;;18.00;;
72209;SDS011;60113;48.762;12.302;2023-09-08T02:09:21;24.20;;;17.50;;
72209;SDS011;60113;48.762;12.302;2023-09-08T02:11:49;24.42;;;15.73;;
72209;SDS011;60113;48.762;12.302;2023-09-08T02:14:18;25.85;;;15.10;;
72209;SDS011;60113;48.762;12.302;2023-09-08T02:16:46;33.80;;;15.50;;
72209;SDS011;60113;48.762;12.302;2023-09-08T02:19:11;21.83;;;13.82;;
72209;SDS011;60113;48.762;12.302;2023-09-08T02:21:36;23.10;;;14.73;;
72209;SDS011;60113;48.762;12.302;2023-09-08T02:24:02;18.02;;;14.27;;
72209;SDS011;60113;48.762;12.302;2023-09-08T02:26:27;22.80;;;14.45;;
72209;SDS011;60113;48.762;12.302;2023-09-08T02:28:53;25.20;;;16.05;;
72209;SDS011;60113;48.762;12.302;2023-09-08T02:31:18;28.02;;;18.20;;
72209;SDS011;60113;48.762;12.302;2023-09-08T02:33:45;24.83;;;18.95;;
72209;SDS011;60113;48.762;12.302;2023-09-08T02:36:22;34.42;;;20.30;;
72209;SDS011;60113;48.762;12.302;2023-09-08T02:38:54;33.70;;;21.50;;
72209;SDS011;60113;48.762;12.302;2023-09-08T02:41:20;40.70;;;22.70;;
72209;SDS011;60113;48.762;12.302;2023-09-08T02:43:46;38.65;;;22.25;;
72209;SDS011;60113;48.762;12.302;2023-09-08T02:46:14;36.03;;;22.88;;
72209;SDS011;60113;48.762;12.302;2023-09-08T02:48:40;43.33;;;26.42;;
72209;SDS011;60113;48.762;12.302;2023-09-08T02:51:17;47.35;;;29.60;;
72209;SDS011;60113;48.762;12.302;2023-09-08T02:53:46;45.20;;;27.10;;
72209;SDS011;60113;48.762;12.302;2023-09-08T02:56:20;33.80;;;22.30;;
72209;SDS011;60113;48.762;12.302;2023-09-08T02:58:48;26.17;;;16.40;;
72209;SDS011;60113;48.762;12.302;2023-09-08T03:01:23;392.77;;;275.58;;
72209;SDS011;60113;48.762;12.302;2023-09-08T03:03:48;179.57;;;114.70;;
72209;SDS011;60113;48.762;12.302;2023-09-08T03:06:14;114.00;;;70.40;;
72209;SDS011;60113;48.762;12.302;2023-09-08T03:08:40;66.30;;;39.85;;
72209;SDS011;60113;48.762;12.302;2023-09-08T03:11:06;32.83;;;23.38;;
72209;SDS011;60113;48.762;12.302;2023-09-08T03:13:33;35.17;;;22.27;;
72209;SDS011;60113;48.762;12.302;2023-09-08T03:16:08;42.05;;;26.98;;
72209;SDS011;60113;48.762;12.302;2023-09-08T03:18:37;48.70;;;29.27;;
72209;SDS011;60113;48.762;12.302;2023-09-08T03:21:03;37.97;;;24.10;;
72209;SDS011;60113;48.762;12.302;2023-09-08T03:26:09;46.70;;;25.00;;
72209;SDS011;60113;48.762;12.302;2023-09-08T03:28:38;45.15;;;24.67;;
72209;SDS011;60113;48.762;12.302;2023-09-08T03:31:12;35.53;;;20.63;;
72209;SDS011;60113;48.762;12.302;2023-09-08T03:33:37;27.35;;;18.42;;
72209;SDS011;60113;48.762;12.302;2023-09-08T03:36:06;22.63;;;16.00;;
72209;SDS011;60113;48.762;12.302;2023-09-08T03:38:34;25.85;;;16.63;;
72209;SDS011;60113;48.762;12.302;2023-09-08T03:41:05;23.73;;;15.68;;
72209;SDS011;60113;48.762;12.302;2023-09-08T03:43:34;26.70;;;15.88;;
72209;SDS011;60113;48.762;12.302;2023-09-08T03:46:22;33.78;;;21.48;;
72209;SDS011;60113;48.762;12.302;2023-09-08T03:48:52;34.45;;;22.23;;
72209;SDS011;60113;48.762;12.302;2023-09-08T03:51:23;37.58;;;22.80;;
72209;SDS011;60113;48.762;12.302;2023-09-08T03:53:48;34.83;;;22.55;;
72209;SDS011;60113;48.762;12.302;2023-09-08T03:56:20;40.80;;;25.75;;
72209;SDS011;60113;48.762;12.302;2023-09-08T03:58:49;48.85;;;28.27;;
72209;SDS011;60113;48.762;12.302;2023-09-08T04:01:23;65.00;;;32.88;;
72209;SDS011;60113;48.762;12.302;2023-09-08T04:03:51;54.75;;;31.40;;
72209;SDS011;60113;48.762;12.302;2023-09-08T04:06:17;52.15;;;31.33;;
72209;SDS011;60113;48.762;12.302;2023-09-08T04:08:42;52.03;;;29.55;;
72209;SDS011;60113;48.762;12.302;2023-09-08T04:11:10;42.55;;;25.88;;
72209;SDS011;60113;48.762;12.302;2023-09-08T04:13:38;37.65;;;23.00;;
72209;SDS011;60113;48.762;12.302;2023-09-08T04:16:03;34.55;;;21.00;;
72209;SDS011;60113;48.762;12.302;2023-09-08T04:18:31;30.38;;;19.75;;
72209;SDS011;60113;48.762;12.302;2023-09-08T04:21:12;32.92;;;17.15;;
72209;SDS011;60113;48.762;12.302;2023-09-08T04:23:50;25.95;;;16.63;;
72209;SDS011;60113;48.762;12.302;2023-09-08T04:26:21;31.90;;;19.02;;
72209;SDS011;60113;48.762;12.302;2023-09-08T04:28:59;39.13;;;23.08;;
72209;SDS011;60113;48.762;12.302;2023-09-08T04:31:27;43.83;;;25.80;;
72209;SDS011;60113;48.762;12.302;2023-09-08T04:33:53;42.92;;;24.77;;
72209;SDS011;60113;48.762;12.302;2023-09-08T04:36:22;44.92;;;27.70;;
72209;SDS011;60113;48.762;12.302;2023-09-08T04:38:53;52.17;;;28.42;;
72209;SDS011;60113;48.762;12.302;2023-09-08T04:41:18;44.13;;;27.80;;
72209;SDS011;60113;48.762;12.302;2023-09-08T04:43:44;45.08;;;27.63;;
72209;SDS011;60113;48.762;12.302;2023-09-08T04:46:09;51.28;;;27.20;;
72209;SDS011;60113;48.762;12.302;2023-09-08T04:48:46;49.30;;;24.85;;
72209;SDS011;60113;48.762;12.302;2023-09-08T04:51:11;32.78;;;21.38;;
72209;SDS011;60113;48.762;12.302;2023-09-08T04:53:48;37.20;;;21.27;;
72209;SDS011;60113;48.762;12.302;2023-09-08T04:56:19;31.58;;;21.50;;
72209;SDS011;60113;48.762;12.302;2023-09-08T04:58:48;42.72;;;22.55;;
72209;SDS011;60113;48.762;12.302;2023-09-08T05:01:13;40.90;;;23.73;;
72209;SDS011;60113;48.762;12.302;2023-09-08T05:03:41;39.95;;;26.08;;
72209;SDS011;60113;48.762;12.302;2023-09-08T05:06:22;45.33;;;27.77;;
72209;SDS011;60113;48.762;12.302;2023-09-08T05:08:47;49.42;;;30.98;;
72209;SDS011;60113;48.762;12.302;2023-09-08T05:11:18;68.45;;;30.33;;
72209;SDS011;60113;48.762;12.302;2023-09-08T05:13:44;56.13;;;32.40;;
72209;SDS011;60113;48.762;12.302;2023-09-08T05:16:17;65.68;;;34.80;;
72209;SDS011;60113;48.762;12.302;2023-09-08T05:18:59;56.15;;;30.83;;
72209;SDS011;60113;48.762;12.302;2023-09-08T05:21:24;52.40;;;29.92;;
72209;SDS011;60113;48.762;12.302;2023-09-08T05:23:50;49.40;;;30.20;;
72209;SDS011;60113;48.762;12.302;2023-09-08T05:26:15;48.15;;;30.00;;
72209;SDS011;60113;48.762;12.302;2023-09-08T05:28:46;57.35;;;27.23;;
72209;SDS011;60113;48.762;12.302;2023-09-08T05:31:11;45.90;;;28.13;;
72209;SDS011;60113;48.762;12.302;2023-09-08T05:33:46;46.65;;;29.95;;
72209;SDS011;60113;48.762;12.302;2023-09-08T05:36:11;52.83;;;31.38;;
72209;SDS011;60113;48.762;12.302;2023-09-08T05:38:49;52.80;;;30.65;;
72209;SDS011;60113;48.762;12.302;2023-09-08T05:41:17;50.35;;;30.75;;
72209;SDS011;60113;48.762;12.302;2023-09-08T05:43:45;55.47;;;32.70;;
72209;SDS011;60113;48.762;12.302;2023-09-08T05:46:11;66.80;;;36.70;;
72209;SDS011;60113;48.762;12.302;2023-09-08T05:51:19;59.42;;;33.35;;
72209;SDS011;60113;48.762;12.302;2023-09-08T05:53:47;70.95;;;38.22;;
72209;SDS011;60113;48.762;12.302;2023-09-08T05:56:13;63.88;;;37.75;;
72209;SDS011;60113;48.762;12.302;2023-09-08T05:58:41;75.40;;;40.55;;
72209;SDS011;60113;48.762;12.302;2023-09-08T06:01:09;69.97;;;39.25;;
72209;SDS011;60113;48.762;12.302;2023-09-08T06:03:40;70.90;;;37.53;;
72209;SDS011;60113;48.762;12.302;2023-09-08T06:06:24;47.15;;;29.65;;
72209;SDS011;60113;48.762;12.302;2023-09-08T06:08:56;38.88;;;22.90;;
72209;SDS011;60113;48.762;12.302;2023-09-08T06:11:21;20.52;;;15.40;;
72209;SDS011;60113;48.762;12.302;2023-09-08T06:13:50;21.00;;;12.45;;
72209;SDS011;60113;48.762;12.302;2023-09-08T06:16:15;17.65;;;10.40;;
72209;SDS011;60113;48.762;12.302;2023-09-08T06:18:40;11.00;;;8.02;;
72209;SDS011;60113;48.762;12.302;2023-09-08T06:21:09;15.23;;;6.72;;
72209;SDS011;60113;48.762;12.302;2023-09-08T06:23:37;10.82;;;5.95;;
72209;SDS011;60113;48.762;12.302;2023-09-08T06:26:15;9.27;;;6.40;;
72209;SDS011;60113;48.762;12.302;2023-09-08T06:28:42;14.15;;;6.35;;
72209;SDS011;60113;48.762;12.302;2023-09-08T06:31:09;14.98;;;10.27;;
72209;SDS011;60113;48.762;12.302;2023-09-08T06:33:37;13.25;;;8.18;;
72209;SDS011;60113;48.762;12.302;2023-09-08T06:36:15;22.10;;;9.93;;
72209;SDS011;60113;48.762;12.302;2023-09-08T06:38:49;13.30;;;8.98;;
72209;SDS011;60113;48.762;12.302;2023-09-08T06:41:17;15.30;;;7.93;;
72209;SDS011;60113;48.762;12.302;2023-09-08T06:43:43;9.27;;;6.65;;
72209;SDS011;60113;48.762;12.302;2023-09-08T06:46:09;9.00;;;5.95;;
72209;SDS011;60113;48.762;12.302;2023-09-08T06:48:34;8.38;;;5.53;;
72209;SDS011;60113;48.762;12.302;2023-09-08T06:51:00;10.65;;;6.35;;
72209;SDS011;60113;48.762;12.302;2023-09-08T06:53:31;11.05;;;6.40;;
72209;SDS011;60113;48.762;12.302;2023-09-08T06:55:57;9.88;;;5.45;;
72209;SDS011;60113;48.762;12.302;2023-09-08T06:58:25;10.02;;;6.38;;
72209;SDS011;60113;48.762;12.302;2023-09-08T07:00:53;11.93;;;5.80;;
72209;SDS011;60113;48.762;12.302;2023-09-08T07:03:25;7.93;;;5.78;;
72209;SDS011;60113;48.762;12.302;2023-09-08T07:05:51;11.25;;;5.75;;
72209;SDS011;60113;48.762;12.302;2023-09-08T07:08:17;9.95;;;6.10;;
72209;SDS011;60113;48.762;12.302;2023-09-08T07:10:43;10.55;;;5.20;;
72209;SDS011;60113;48.762;12.302;2023-09-08T07:13:09;8.20;;;4.85;;
72209;SDS011;60113;48.762;12.302;2023-09-08T07:15:34;8.68;;;4.53;;
72209;SDS011;60113;48.762;12.302;2023-09-08T07:17:59;10.43;;;5.07;;
72209;SDS011;60113;48.762;12.302;2023-09-08T07:20:34;8.55;;;4.80;;
72209;SDS011;60113;48.762;12.302;2023-09-08T07:23:03;9.05;;;4.50;;
72209;SDS011;60113;48.762;12.302;2023-09-08T07:25:37;5.85;;;4.18;;
72209;SDS011;60113;48.762;12.302;2023-09-08T07:28:14;7.60;;;4.15;;
72209;SDS011;60113;48.762;12.302;2023-09-08T07:30:46;10.48;;;4.07;;
72209;SDS011;60113;48.762;12.302;2023-09-08T07:33:14;7.47;;;4.13;;
72209;SDS011;60113;48.762;12.302;2023-09-08T07:35:42;7.07;;;3.72;;
72209;SDS011;60113;48.762;12.302;2023-09-08T07:38:16;10.98;;;3.70;;
72209;SDS011;60113;48.762;12.302;2023-09-08T07:40:42;6.97;;;4.00;;
72209;SDS011;60113;48.762;12.302;2023-09-08T07:43:07;8.02;;;3.70;;
72209;SDS011;60113;48.762;12.302;2023-09-08T07:45:41;8.30;;;4.10;;
72209;SDS011;60113;48.762;12.302;2023-09-08T07:48:09;6.22;;;3.60;;
72209;SDS011;60113;48.762;12.302;2023-09-08T07:50:52;6.85;;;3.60;;
72209;SDS011;60113;48.762;12.302;2023-09-08T07:53:23;9.43;;;3.65;;
72209;SDS011;60113;48.762;12.302;2023-09-08T07:55:52;6.70;;;3.50;;
72209;SDS011;60113;48.762;12.302;2023-09-08T07:58:37;5.63;;;3.10;;
72209;SDS011;60113;48.762;12.302;2023-09-08T08:01:13;6.03;;;3.30;;
72209;SDS011;60113;48.762;12.302;2023-09-08T08:03:42;7.25;;;3.47;;
72209;SDS011;60113;48.762;12.302;2023-09-08T08:06:07;5.55;;;3.28;;
72209;SDS011;60113;48.762;12.302;2023-09-08T08:08:42;5.05;;;3.58;;
72209;SDS011;60113;48.762;12.302;2023-09-08T08:11:19;4.82;;;3.30;;
72209;SDS011;60113;48.762;12.302;2023-09-08T08:13:45;11.60;;;3.38;;
72209;SDS011;60113;48.762;12.302;2023-09-08T08:16:23;7.95;;;3.35;;
72209;SDS011;60113;48.762;12.302;2023-09-08T08:18:51;3.85;;;2.90;;
72209;SDS011;60113;48.762;12.302;2023-09-08T08:21:16;8.00;;;3.30;;
72209;SDS011;60113;48.762;12.302;2023-09-08T08:23:42;5.53;;;3.33;;
72209;SDS011;60113;48.762;12.302;2023-09-08T08:26:22;7.03;;;3.50;;
72209;SDS011;60113;48.762;12.302;2023-09-08T08:28:49;9.73;;;3.50;;
72209;SDS011;60113;48.762;12.302;2023-09-08T08:31:23;6.88;;;3.38;;
72209;SDS011;60113;48.762;12.302;2023-09-08T08:33:49;5.68;;;3.80;;
72209;SDS011;60113;48.762;12.302;2023-09-08T08:36:14;6.32;;;3.83;;
72209;SDS011;60113;48.762;12.302;2023-09-08T08:38:49;4.70;;;3.20;;
72209;SDS011;60113;48.762;12.302;2023-09-08T08:41:26;7.95;;;3.72;;
72209;SDS011;60113;48.762;12.302;2023-09-08T08:43:54;5.38;;;3.63;;
72209;SDS011;60113;48.762;12.302;2023-09-08T08:46:23;12.40;;;3.47;;
72209;SDS011;60113;48.762;12.302;2023-09-08T08:48:52;6.57;;;3.00;;
72209;SDS011;60113;48.762;12.302;2023-09-08T08:51:19;9.20;;;3.45;;
72209;SDS011;60113;48.762;12.302;2023-09-08T08:53:53;6.63;;;3.35;;
72209;SDS011;60113;48.762;12.302;2023-09-08T08:56:22;10.32;;;3.85;;
72209;SDS011;60113;48.762;12.302;2023-09-08T08:58:51;9.30;;;3.55;;
72209;SDS011;60113;48.762;12.302;2023-09-08T09:01:23;6.10;;;3.70;;
72209;SDS011;60113;48.762;12.302;2023-09-08T09:03:51;7.38;;;3.80;;
72209;SDS011;60113;48.762;12.302;2023-09-08T09:06:36;4.57;;;3.40;;
72209;SDS011;60113;48.762;12.302;2023-09-08T09:09:04;6.75;;;3.70;;
72209;SDS011;60113;48.762;12.302;2023-09-08T09:11:33;4.70;;;3.30;;
72209;SDS011;60113;48.762;12.302;2023-09-08T09:14:01;6.53;;;3.60;;
72209;SDS011;60113;48.762;12.302;2023-09-08T09:16:42;5.43;;;3.55;;
72209;SDS011;60113;48.762;12.302;2023-09-08T09:22:02;8.98;;;3.60;;
72209;SDS011;60113;48.762;12.302;2023-09-08T09:24:32;7.22;;;3.50;;
72209;SDS011;60113;48.762;12.302;2023-09-08T09:27:01;4.60;;;3.35;;
72209;SDS011;60113;48.762;12.302;2023-09-08T09:29:48;6.97;;;3.33;;
72209;SDS011;60113;48.762;12.302;2023-09-08T09:32:23;5.90;;;3.67;;
72209;SDS011;60113;48.762;12.302;2023-09-08T09:35:08;7.43;;;3.63;;
72209;SDS011;60113;48.762;12.302;2023-09-08T09:37:52;6.45;;;3.55;;
72209;SDS011;60113;48.762;12.302;2023-09-08T09:40:21;6.97;;;3.63;;
72209;SDS011;60113;48.762;12.302;2023-09-08T09:42:49;6.53;;;3.22;;
72209;SDS011;60113;48.762;12.302;2023-09-08T09:45:18;6.82;;;3.50;;
72209;SDS011;60113;48.762;12.302;2023-09-08T09:48:13;16.45;;;3.90;;
72209;SDS011;60113;48.762;12.302;2023-09-08T09:50:47;6.90;;;3.35;;
72209;SDS011;60113;48.762;12.302;2023-09-08T09:53:17;6.53;;;3.33;;
72209;SDS011;60113;48.762;12.302;2023-09-08T09:55:44;6.22;;;3.60;;
72209;SDS011;60113;48.762;12.302;2023-09-08T09:58:10;6.07;;;4.10;;
72209;SDS011;60113;48.762;12.302;2023-09-08T10:00:38;5.72;;;3.45;;
72209;SDS011;60113;48.762;12.302;2023-09-08T10:03:12;5.40;;;3.65;;
72209;SDS011;60113;48.762;12.302;2023-09-08T10:05:47;5.70;;;3.22;;
72209;SDS011;60113;48.762;12.302;2023-09-08T10:08:14;5.63;;;3.40;;
72209;SDS011;60113;48.762;12.302;2023-09-08T10:10:39;6.95;;;3.17;;
72209;SDS011;60113;48.762;12.302;2023-09-08T10:13:07;6.75;;;3.33;;
72209;SDS011;60113;48.762;12.302;2023-09-08T10:15:35;6.85;;;3.17;;
72209;SDS011;60113;48.762;12.302;2023-09-08T10:18:11;4.80;;;2.97;;
72209;SDS011;60113;48.762;12.302;2023-09-08T10:20:44;8.68;;;3.35;;
72209;SDS011;60113;48.762;12.302;2023-09-08T10:26:16;4.82;;;3.20;;
72209;SDS011;60113;48.762;12.302;2023-09-08T10:28:42;4.38;;;2.90;;
72209;SDS011;60113;48.762;12.302;2023-09-08T10:31:09;7.10;;;3.20;;
72209;SDS011;60113;48.762;12.302;2023-09-08T10:33:34;6.95;;;3.33;;
72209;SDS011;60113;48.762;12.302;2023-09-08T10:36:01;5.78;;;3.42;;
72209;SDS011;60113;48.762;12.302;2023-09-08T10:38:33;10.95;;;3.30;;
72209;SDS011;60113;48.762;12.302;2023-09-08T10:43:40;5.15;;;3.58;;
72209;SDS011;60113;48.762;12.302;2023-09-08T10:46:10;10.63;;;3.42;;
72209;SDS011;60113;48.762;12.302;2023-09-08T10:48:48;3.45;;;3.15;;
72209;SDS011;60113;48.762;12.302;2023-09-08T10:51:20;5.70;;;3.30;;
72209;SDS011;60113;48.762;12.302;2023-09-08T10:53:50;6.65;;;3.05;;
72209;SDS011;60113;48.762;12.302;2023-09-08T10:56:16;6.18;;;3.30;;
72209;SDS011;60113;48.762;12.302;2023-09-08T10:58:51;5.20;;;3.33;;
72209;SDS011;60113;48.762;12.302;2023-09-08T11:01:23;13.23;;;4.15;;
72209;SDS011;60113;48.762;12.302;2023-09-08T11:03:54;8.43;;;3.40;;
72209;SDS011;60113;48.762;12.302;2023-09-08T11:06:22;6.20;;;3.50;;
72209;SDS011;60113;48.762;12.302;2023-09-08T11:08:51;7.72;;;3.47;;
72209;SDS011;60113;48.762;12.302;2023-09-08T11:11:25;5.72;;;3.28;;
72209;SDS011;60113;48.762;12.302;2023-09-08T11:14:09;7.70;;;3.30;;
72209;SDS011;60113;48.762;12.302;2023-09-08T11:16:37;6.75;;;3.40;;
72209;SDS011;60113;48.762;12.302;2023-09-08T11:19:05;7.65;;;3.50;;
72209;SDS011;60113;48.762;12.302;2023-09-08T11:21:31;5.10;;;3.35;;
72209;SDS011;60113;48.762;12.302;2023-09-08T11:24:02;5.68;;;3.38;;
72209;SDS011;60113;48.762;12.302;2023-09-08T11:26:48;7.95;;;2.90;;
72209;SDS011;60113;48.762;12.302;2023-09-08T11:29:18;4.43;;;3.03;;
72209;SDS011;60113;48.762;12.302;2023-09-08T11:31:43;4.00;;;2.95;;
72209;SDS011;60113;48.762;12.302;2023-09-08T11:34:16;9.10;;;3.88;;
72209;SDS011;60113;48.762;12.302;2023-09-08T11:36:47;4.75;;;3.42;;
72209;SDS011;60113;48.762;12.302;2023-09-08T11:39:13;3.63;;;3.03;;
72209;SDS011;60113;48.762;12.302;2023-09-08T11:41:39;6.13;;;3.35;;
72209;SDS011;60113;48.762;12.302;2023-09-08T11:44:19;4.40;;;3.10;;
72209;SDS011;60113;48.762;12.302;2023-09-08T11:46:45;6.68;;;3.05;;
72209;SDS011;60113;48.762;12.302;2023-09-08T11:49:18;7.47;;;3.17;;
72209;SDS011;60113;48.762;12.302;2023-09-08T11:51:49;5.80;;;3.03;;
72209;SDS011;60113;48.762;12.302;2023-09-08T11:54:20;5.78;;;3.10;;
72209;SDS011;60113;48.762;12.302;2023-09-08T11:56:46;4.72;;;3.30;;
72209;SDS011;60113;48.762;12.302;2023-09-08T11:59:12;3.55;;;2.85;;
72209;SDS011;60113;48.762;12.302;2023-09-08T12:01:50;6.72;;;3.22;;
72209;SDS011;60113;48.762;12.302;2023-09-08T12:04:19;7.05;;;3.35;;
72209;SDS011;60113;48.762;12.302;2023-09-08T12:06:52;5.15;;;3.13;;
72209;SDS011;60113;48.762;12.302;2023-09-08T12:09:21;8.30;;;3.33;;
72209;SDS011;60113;48.762;12.302;2023-09-08T12:11:50;5.43;;;3.20;;
72209;SDS011;60113;48.762;12.302;2023-09-08T12:14:18;12.35;;;3.60;;
72209;SDS011;60113;48.762;12.302;2023-09-08T12:16:46;3.20;;;2.70;;
72209;SDS011;60113;48.762;12.302;2023-09-08T12:19:30;5.97;;;3.10;;
72209;SDS011;60113;48.762;12.302;2023-09-08T12:21:58;4.82;;;3.45;;
72209;SDS011;60113;48.762;12.302;2023-09-08T12:27:24;6.57;;;3.38;;
72209;SDS011;60113;48.762;12.302;2023-09-08T12:32:21;10.00;;;3.22;;
72209;SDS011;60113;48.762;12.302;2023-09-08T12:34:51;8.45;;;3.17;;
72209;SDS011;60113;48.762;12.302;2023-09-08T12:37:20;5.05;;;3.28;;
72209;SDS011;60113;48.762;12.302;2023-09-08T12:39:49;3.42;;;2.85;;
72209;SDS011;60113;48.762;12.302;2023-09-08T12:42:15;5.38;;;2.95;;
72209;SDS011;60113;48.762;12.302;2023-09-08T12:44:44;11.70;;;3.75;;
72209;SDS011;60113;48.762;12.302;2023-09-08T12:47:12;5.78;;;3.50;;
72209;SDS011;60113;48.762;12.302;2023-09-08T12:49:41;4.55;;;3.20;;
72209;SDS011;60113;48.762;12.302;2023-09-08T12:52:15;5.55;;;3.25;;
72209;SDS011;60113;48.762;12.302;2023-09-08T12:54:50;6.30;;;3.00;;
72209;SDS011;60113;48.762;12.302;2023-09-08T12:57:18;9.25;;;4.07;;
72209;SDS011;60113;48.762;12.302;2023-09-08T12:59:43;11.20;;;3.97;;
72209;SDS011;60113;48.762;12.302;2023-09-08T13:02:24;6.60;;;3.13;;
72209;SDS011;60113;48.762;12.302;2023-09-08T13:04:52;8.23;;;3.47;;
72209;SDS011;60113;48.762;12.302;2023-09-08T13:07:17;7.65;;;3.45;;
72209;SDS011;60113;48.762;12.302;2023-09-08T13:09:49;8.15;;;3.50;;
72209;SDS011;60113;48.762;12.302;2023-09-08T13:12:18;10.93;;;3.35;;
72209;SDS011;60113;48.762;12.302;2023-09-08T13:14:53;7.00;;;3.63;;
72209;SDS011;60113;48.762;12.302;2023-09-08T13:17:21;6.68;;;3.92;;
72209;SDS011;60113;48.762;12.302;2023-09-08T13:20:05;7.88;;;3.25;;
72209;SDS011;60113;48.762;12.302;2023-09-08T13:22:31;12.93;;;4.07;;
72209;SDS011;60113;48.762;12.302;2023-09-08T13:24:57;8.35;;;3.40;;
72209;SDS011;60113;48.762;12.302;2023-09-08T13:27:28;6.50;;;3.33;;
72209;SDS011;60113;48.762;12.302;2023-09-08T13:30:09;5.55;;;3.53;;
72209;SDS011;60113;48.762;12.302;2023-09-08T13:32:51;7.18;;;3.25;;
72209;SDS011;60113;48.762;12.302;2023-09-08T13:35:17;13.40;;;3.60;;
72209;SDS011;60113;48.762;12.302;2023-09-08T13:37:42;5.63;;;3.15;;
72209;SDS011;60113;48.762;12.302;2023-09-08T13:40:10;6.78;;;3.15;;
72209;SDS011;60113;48.762;12.302;2023-09-08T13:42:39;7.15;;;3.35;;
72209;SDS011;60113;48.762;12.302;2023-09-08T13:45:16;6.95;;;2.78;;
72209;SDS011;60113;48.762;12.302;2023-09-08T13:47:50;6.32;;;2.80;;
72209;SDS011;60113;48.762;12.302;2023-09-08T13:50:21;7.03;;;2.88;;
72209;SDS011;60113;48.762;12.302;2023-09-08T13:52:48;4.78;;;2.92;;
72209;SDS011;60113;48.762;12.302;2023-09-08T13:55:15;7.78;;;2.85;;
72209;SDS011;60113;48.762;12.302;2023-09-08T13:57:46;5.78;;;3.10;;
72209;SDS011;60113;48.762;12.302;2023-09-08T14:00:16;9.63;;;3.28;;
72209;SDS011;60113;48.762;12.302;2023-09-08T14:02:48;5.28;;;3.03;;
72209;SDS011;60113;48.762;12.302;2023-09-08T14:05:13;5.10;;;3.40;;
72209;SDS011;60113;48.762;12.302;2023-09-08T14:07:39;4.35;;;2.90;;
72209;SDS011;60113;48.762;12.302;2023-09-08T14:10:08;5.25;;;2.58;;
72209;SDS011;60113;48.762;12.302;2023-09-08T14:12:37;6.38;;;3.00;;
72209;SDS011;60113;48.762;12.302;2023-09-08T14:15:04;4.55;;;2.70;;
72209;SDS011;60113;48.762;12.302;2023-09-08T14:17:40;4.70;;;2.75;;
72209;SDS011;60113;48.762;12.302;2023-09-08T14:20:05;6.88;;;2.70;;
72209;SDS011;60113;48.762;12.302;2023-09-08T14:22:52;6.60;;;2.70;;
72209;SDS011;60113;48.762;12.302;2023-09-08T14:25:17;5.43;;;2.80;;
72209;SDS011;60113;48.762;12.302;2023-09-08T14:27:55;4.53;;;2.72;;
72209;SDS011;60113;48.762;12.302;2023-09-08T14:30:20;5.47;;;2.55;;
72209;SDS011;60113;48.762;12.302;2023-09-08T14:32:54;5.72;;;2.60;;
72209;SDS011;60113;48.762;12.302;2023-09-08T14:35:21;10.13;;;2.80;;
72209;SDS011;60113;48.762;12.302;2023-09-08T14:37:49;8.52;;;3.35;;
72209;SDS011;60113;48.762;12.302;2023-09-08T14:40:19;6.95;;;3.20;;
72209;SDS011;60113;48.762;12.302;2023-09-08T14:42:52;7.93;;;3.30;;
72209;SDS011;60113;48.762;12.302;2023-09-08T14:45:35;5.03;;;3.10;;
72209;SDS011;60113;48.762;12.302;2023-09-08T14:48:03;9.65;;;3.22;;
72209;SDS011;60113;48.762;12.302;2023-09-08T14:50:29;7.95;;;2.90;;
72209;SDS011;60113;48.762;12.302;2023-09-08T14:52:54;8.63;;;2.75;;
72209;SDS011;60113;48.762;12.302;2023-09-08T14:55:22;3.88;;;2.85;;
72209;SDS011;60113;48.762;12.302;2023-09-08T14:57:53;8.83;;;2.90;;
72209;SDS011;60113;48.762;12.302;2023-09-08T15:00:23;8.40;;;3.10;;
72209;SDS011;60113;48.762;12.302;2023-09-08T15:02:48;4.30;;;2.90;;
72209;SDS011;60113;48.762;12.302;2023-09-08T15:05:16;4.15;;;2.72;;